sensor_id;sensor_type;location;lat;lon;timestamp;pressure;altitude;pressure_sealevel;temperature;humidity
52535;BME280;38443;53.164;5.802;2023-05-11T00:01:07;101666.84;;;10.22;100.00
52535;BME280;38443;53.164;5.802;2023-05-11T00:03:33;101670.41;;;10.22;100.00
52535;BME280;38443;53.164;5.802;2023-05-11T00:05:58;101668.66;;;10.19;100.00
52535;BME280;38443;53.164;5.802;2023-05-11T00:08:24;101666.88;;;10.20;100.00
52535;BME280;38443;53.164;5.802;2023-05-11T00:10:49;101670.44;;;10.21;100.00
52535;BME280;38443;53.164;5.802;2023-05-11T00:13:15;101668.72;;;10.16;100.00
52535;BME280;38443;53.164;5.802;2023-05-11T00:15:40;101665.16;;;10.16;100.00
52535;BME280;38443;53.164;5.802;2023-05-11T00:18:06;101666.91;;;10.18;100.00
52535;BME280;38443;53.164;5.802;2023-05-11T00:20:31;101666.94;;;10.17;100.00
52535;BME280;38443;53.164;5.802;2023-05-11T00:22:56;101666.91;;;10.18;100.00
52535;BME280;38443;53.164;5.802;2023-05-11T00:25:22;101669.53;;;10.20;100.00
52535;BME280;38443;53.164;5.802;2023-05-11T00:27:47;101656.16;;;10.22;100.00
52535;BME280;38443;53.164;5.802;2023-05-11T00:30:13;101663.28;;;10.23;100.00
52535;BME280;38443;53.164;5.802;2023-05-11T00:32:39;101660.66;;;10.19;100.00
52535;BME280;38443;53.164;5.802;2023-05-11T00:35:05;101674.03;;;10.19;100.00
52535;BME280;38443;53.164;5.802;2023-05-11T00:37:30;101676.75;;;10.16;100.00
52535;BME280;38443;53.164;5.802;2023-05-11T00:39:56;101672.28;;;10.18;100.00
52535;BME280;38443;53.164;5.802;2023-05-11T00:42:21;101672.22;;;10.22;100.00
52535;BME280;38443;53.164;5.802;2023-05-11T00:44:46;101667.78;;;10.19;100.00
52535;BME280;38443;53.164;5.802;2023-05-11T00:47:12;101664.25;;;10.18;100.00
52535;BME280;38443;53.164;5.802;2023-05-11T00:49:37;101662.47;;;10.17;100.00
52535;BME280;38443;53.164;5.802;2023-05-11T00:52:03;101662.47;;;10.16;100.00
52535;BME280;38443;53.164;5.802;2023-05-11T00:54:30;101659.84;;;10.14;100.00
52535;BME280;38443;53.164;5.802;2023-05-11T00:56:55;101664.28;;;10.15;100.00
52535;BME280;38443;53.164;5.802;2023-05-11T00:59:20;101658.91;;;10.15;100.00
52535;BME280;38443;53.164;5.802;2023-05-11T01:01:46;101663.38;;;10.16;100.00
52535;BME280;38443;53.164;5.802;2023-05-11T01:04:11;101662.56;;;10.10;100.00
52535;BME280;38443;53.164;5.802;2023-05-11T01:06:51;101658.13;;;10.10;100.00
52535;BME280;38443;53.164;5.802;2023-05-11T01:12:11;101667.03;;;10.09;100.00
52535;BME280;38443;53.164;5.802;2023-05-11T01:14:44;101667.03;;;10.11;100.00
52535;BME280;38443;53.164;5.802;2023-05-11T01:17:21;101661.69;;;10.08;100.00
52535;BME280;38443;53.164;5.802;2023-05-11T01:19:53;101664.38;;;10.09;100.00
52535;BME280;38443;53.164;5.802;2023-05-11T01:22:37;101674.16;;;10.10;100.00
52535;BME280;38443;53.164;5.802;2023-05-11T01:30:41;101677.72;;;10.09;100.00
52535;BME280;38443;53.164;5.802;2023-05-11T01:33:09;101676.91;;;10.04;100.00
52535;BME280;38443;53.164;5.802;2023-05-11T01:35:39;101668.06;;;9.99;100.00
52535;BME280;38443;53.164;5.802;2023-05-11T01:38:10;101675.25;;;9.95;100.00
52535;BME280;38443;53.164;5.802;2023-05-11T01:40:38;101670.81;;;9.94;100.00
52535;BME280;38443;53.164;5.802;2023-05-11T01:43:09;101677.13;;;9.90;100.00
52535;BME280;38443;53.164;5.802;2023-05-11T01:45:40;101676.22;;;9.90;100.00
52535;BME280;38443;53.164;5.802;2023-05-11T01:48:11;101681.59;;;9.88;100.00
52535;BME280;38443;53.164;5.802;2023-05-11T01:50:38;101679.75;;;9.92;100.00
52535;BME280;38443;53.164;5.802;2023-05-11T01:53:05;101685.06;;;9.95;100.00
52535;BME280;38443;53.164;5.802;2023-05-11T01:55:33;101684.13;;;9.97;100.00
52535;BME280;38443;53.164;5.802;2023-05-11T01:58:01;101687.66;;;9.99;100.00
52535;BME280;38443;53.164;5.802;2023-05-11T02:00:29;101676.97;;;9.98;100.00
52535;BME280;38443;53.164;5.802;2023-05-11T02:02:55;101682.34;;;9.98;100.00
52535;BME280;38443;53.164;5.802;2023-05-11T02:05:23;101683.25;;;9.98;100.00
52535;BME280;38443;53.164;5.802;2023-05-11T02:07:50;101674.28;;;10.01;100.00
52535;BME280;38443;53.164;5.802;2023-05-11T02:10:17;101673.38;;;10.02;100.00
52535;BME280;38443;53.164;5.802;2023-05-11T02:12:44;101672.47;;;10.03;100.00
52535;BME280;38443;53.164;5.802;2023-05-11T02:15:11;101672.47;;;10.03;100.00
52535;BME280;38443;53.164;5.802;2023-05-11T02:17:38;101671.56;;;10.04;100.00
52535;BME280;38443;53.164;5.802;2023-05-11T02:20:06;101676.94;;;10.03;100.00
52535;BME280;38443;53.164;5.802;2023-05-11T02:22:34;101682.31;;;10.01;100.00
52535;BME280;38443;53.164;5.802;2023-05-11T02:25:00;101679.56;;;10.04;100.00
52535;BME280;38443;53.164;5.802;2023-05-11T02:27:26;101686.69;;;10.07;100.00
52535;BME280;38443;53.164;5.802;2023-05-11T02:29:52;101684.03;;;10.07;100.00
52535;BME280;38443;53.164;5.802;2023-05-11T02:32:20;101695.59;;;10.07;100.00
52535;BME280;38443;53.164;5.802;2023-05-11T02:34:57;101687.56;;;10.07;100.00
52535;BME280;38443;53.164;5.802;2023-05-11T02:37:26;101684.03;;;10.05;100.00
52535;BME280;38443;53.164;5.802;2023-05-11T02:39:57;101689.41;;;10.02;100.00
52535;BME280;38443;53.164;5.802;2023-05-11T02:42:25;101689.41;;;10.02;100.00
52535;BME280;38443;53.164;5.802;2023-05-11T02:45:03;101680.50;;;10.03;100.00
52535;BME280;38443;53.164;5.802;2023-05-11T02:47:32;101684.97;;;10.01;100.00
52535;BME280;38443;53.164;5.802;2023-05-11T02:50:00;101686.78;;;10.01;100.00
52535;BME280;38443;53.164;5.802;2023-05-11T02:52:27;101686.78;;;9.99;100.00
52535;BME280;38443;53.164;5.802;2023-05-11T02:54:53;101699.31;;;9.95;100.00
52535;BME280;38443;53.164;5.802;2023-05-11T02:57:21;101691.28;;;9.95;100.00
52535;BME280;38443;53.164;5.802;2023-05-11T02:59:48;101698.44;;;9.95;100.00
52535;BME280;38443;53.164;5.802;2023-05-11T03:02:14;101695.75;;;9.95;100.00
52535;BME280;38443;53.164;5.802;2023-05-11T03:04:39;101696.63;;;9.97;100.00
52535;BME280;38443;53.164;5.802;2023-05-11T03:07:05;101689.47;;;9.97;100.00
52535;BME280;38443;53.164;5.802;2023-05-11T03:09:31;101691.28;;;9.98;100.00
52535;BME280;38443;53.164;5.802;2023-05-11T03:11:58;101689.53;;;9.94;100.00
52535;BME280;38443;53.164;5.802;2023-05-11T03:14:24;101694.88;;;9.94;100.00
52535;BME280;38443;53.164;5.802;2023-05-11T03:16:50;101692.22;;;9.94;100.00
52535;BME280;38443;53.164;5.802;2023-05-11T03:19:16;101692.16;;;9.96;100.00
52535;BME280;38443;53.164;5.802;2023-05-11T03:21:42;101700.16;;;9.99;100.00
52535;BME280;38443;53.164;5.802;2023-05-11T03:24:08;101701.09;;;9.96;100.00
52535;BME280;38443;53.164;5.802;2023-05-11T03:26:35;101698.44;;;9.96;100.00
52535;BME280;38443;53.164;5.802;2023-05-11T03:29:01;101696.66;;;9.94;100.00
52535;BME280;38443;53.164;5.802;2023-05-11T03:31:27;101685.09;;;9.93;100.00
52535;BME280;38443;53.164;5.802;2023-05-11T03:33:53;101693.09;;;9.93;100.00
52535;BME280;38443;53.164;5.802;2023-05-11T03:36:19;101683.28;;;9.94;100.00
52535;BME280;38443;53.164;5.802;2023-05-11T03:38:46;101691.34;;;9.92;100.00
52535;BME280;38443;53.164;5.802;2023-05-11T03:41:14;101690.41;;;9.95;100.00
52535;BME280;38443;53.164;5.802;2023-05-11T03:43:42;101699.31;;;9.95;100.00
52535;BME280;38443;53.164;5.802;2023-05-11T03:46:10;101694.03;;;9.91;100.00
52535;BME280;38443;53.164;5.802;2023-05-11T03:48:39;101700.25;;;9.91;100.00
52535;BME280;38443;53.164;5.802;2023-05-11T03:51:05;101703.84;;;9.90;100.00
52535;BME280;38443;53.164;5.802;2023-05-11T03:53:31;101700.28;;;9.90;100.00
52535;BME280;38443;53.164;5.802;2023-05-11T03:55:56;101697.66;;;9.87;100.00
52535;BME280;38443;53.164;5.802;2023-05-11T03:58:22;101698.56;;;9.84;100.00
52535;BME280;38443;53.164;5.802;2023-05-11T04:00:48;101692.38;;;9.81;100.00
52535;BME280;38443;53.164;5.802;2023-05-11T04:03:13;101699.50;;;9.80;100.00
52535;BME280;38443;53.164;5.802;2023-05-11T04:05:39;101694.19;;;9.78;100.00
52535;BME280;38443;53.164;5.802;2023-05-11T04:08:05;101699.56;;;9.75;100.00
52535;BME280;38443;53.164;5.802;2023-05-11T04:10:30;101704.84;;;9.80;100.00
52535;BME280;38443;53.164;5.802;2023-05-11T04:12:55;101706.63;;;9.83;100.00
52535;BME280;38443;53.164;5.802;2023-05-11T04:15:21;101703.03;;;9.82;100.00
52535;BME280;38443;53.164;5.802;2023-05-11T04:17:46;101703.97;;;9.79;100.00
52535;BME280;38443;53.164;5.802;2023-05-11T04:20:12;101708.50;;;9.74;100.00
52535;BME280;38443;53.164;5.802;2023-05-11T04:22:37;101711.19;;;9.73;100.00
52535;BME280;38443;53.164;5.802;2023-05-11T04:25:03;101713.00;;;9.72;100.00
52535;BME280;38443;53.164;5.802;2023-05-11T04:27:32;101706.78;;;9.70;100.00
52535;BME280;38443;53.164;5.802;2023-05-11T04:29:58;101706.78;;;9.67;100.00
52535;BME280;38443;53.164;5.802;2023-05-11T04:32:23;101713.94;;;9.65;100.00
52535;BME280;38443;53.164;5.802;2023-05-11T04:34:48;101714.00;;;9.61;100.00
52535;BME280;38443;53.164;5.802;2023-05-11T04:37:13;101717.63;;;9.55;100.00
52535;BME280;38443;53.164;5.802;2023-05-11T04:39:39;101725.72;;;9.50;100.00
52535;BME280;38443;53.164;5.802;2023-05-11T04:42:04;101732.00;;;9.46;100.00
52535;BME280;38443;53.164;5.802;2023-05-11T04:44:29;101740.00;;;9.45;100.00
52535;BME280;38443;53.164;5.802;2023-05-11T04:46:55;101731.13;;;9.43;100.00
52535;BME280;38443;53.164;5.802;2023-05-11T04:49:21;101730.28;;;9.37;100.00
52535;BME280;38443;53.164;5.802;2023-05-11T04:51:46;101735.66;;;9.34;100.00
52535;BME280;38443;53.164;5.802;2023-05-11T04:54:11;101736.59;;;9.30;100.00
52535;BME280;38443;53.164;5.802;2023-05-11T04:56:37;101738.41;;;9.28;100.00
52535;BME280;38443;53.164;5.802;2023-05-11T04:59:05;101740.16;;;9.29;100.00
52535;BME280;38443;53.164;5.802;2023-05-11T05:01:30;101737.47;;;9.29;100.00
52535;BME280;38443;53.164;5.802;2023-05-11T05:03:56;101736.59;;;9.30;100.00
52535;BME280;38443;53.164;5.802;2023-05-11T05:06:21;101745.50;;;9.31;100.00
52535;BME280;38443;53.164;5.802;2023-05-11T05:08:46;101744.63;;;9.27;100.00
52535;BME280;38443;53.164;5.802;2023-05-11T05:11:12;101752.56;;;9.33;100.00
52535;BME280;38443;53.164;5.802;2023-05-11T05:13:37;101749.91;;;9.33;100.00
52535;BME280;38443;53.164;5.802;2023-05-11T05:16:02;101750.81;;;9.32;100.00
52535;BME280;38443;53.164;5.802;2023-05-11T05:18:28;101749.03;;;9.34;100.00
52535;BME280;38443;53.164;5.802;2023-05-11T05:20:53;101737.41;;;9.35;100.00
52535;BME280;38443;53.164;5.802;2023-05-11T05:23:18;101744.56;;;9.35;100.00
52535;BME280;38443;53.164;5.802;2023-05-11T05:25:44;101752.56;;;9.36;100.00
52535;BME280;38443;53.164;5.802;2023-05-11T05:28:09;101754.31;;;9.41;100.00
52535;BME280;38443;53.164;5.802;2023-05-11T05:30:34;101753.38;;;9.43;100.00
52535;BME280;38443;53.164;5.802;2023-05-11T05:33:01;101761.41;;;9.40;100.00
52535;BME280;38443;53.164;5.802;2023-05-11T05:35:26;101765.88;;;9.43;100.00
52535;BME280;38443;53.164;5.802;2023-05-11T05:37:51;101766.72;;;9.45;100.00
52535;BME280;38443;53.164;5.802;2023-05-11T05:40:17;101769.34;;;9.48;100.00
52535;BME280;38443;53.164;5.802;2023-05-11T05:42:42;101761.38;;;9.46;100.00
52535;BME280;38443;53.164;5.802;2023-05-11T05:45:08;101766.72;;;9.46;100.00
52535;BME280;38443;53.164;5.802;2023-05-11T05:47:33;101768.53;;;9.44;100.00
52535;BME280;38443;53.164;5.802;2023-05-11T05:49:59;101781.88;;;9.44;100.00
52535;BME280;38443;53.164;5.802;2023-05-11T05:52:24;101770.34;;;9.42;100.00
52535;BME280;38443;53.164;5.802;2023-05-11T05:54:50;101769.41;;;9.46;100.00
52535;BME280;38443;53.164;5.802;2023-05-11T05:57:15;101764.94;;;9.48;100.00
52535;BME280;38443;53.164;5.802;2023-05-11T05:59:40;101768.34;;;9.61;100.00
52535;BME280;38443;53.164;5.802;2023-05-11T06:02:06;101772.75;;;9.64;100.00
52535;BME280;38443;53.164;5.802;2023-05-11T06:04:32;101771.00;;;9.63;100.00
52535;BME280;38443;53.164;5.802;2023-05-11T06:06:57;101770.13;;;9.61;100.00
52535;BME280;38443;53.164;5.802;2023-05-11T06:09:24;101781.72;;;9.61;100.00
52535;BME280;38443;53.164;5.802;2023-05-11T06:11:49;101777.22;;;9.63;100.00
52535;BME280;38443;53.164;5.802;2023-05-11T06:14:14;101779.03;;;9.63;100.00
52535;BME280;38443;53.164;5.802;2023-05-11T06:16:40;101774.50;;;9.68;100.00
52535;BME280;38443;53.164;5.802;2023-05-11T06:19:06;101778.03;;;9.71;100.00
52535;BME280;38443;53.164;5.802;2023-05-11T06:21:31;101777.88;;;9.85;100.00
52535;BME280;38443;53.164;5.802;2023-05-11T06:23:57;101774.28;;;9.89;100.00
52535;BME280;38443;53.164;5.802;2023-05-11T06:26:22;101776.00;;;9.95;100.00
52535;BME280;38443;53.164;5.802;2023-05-11T06:28:49;101773.31;;;9.96;100.00
52535;BME280;38443;53.164;5.802;2023-05-11T06:31:14;101764.38;;;9.97;100.00
52535;BME280;38443;53.164;5.802;2023-05-11T06:33:40;101777.66;;;10.07;100.00
52535;BME280;38443;53.164;5.802;2023-05-11T06:36:05;101779.38;;;10.11;100.00
52535;BME280;38443;53.164;5.802;2023-05-11T06:38:31;101781.97;;;10.15;100.00
52535;BME280;38443;53.164;5.802;2023-05-11T06:40:57;101789.97;;;10.18;100.00
52535;BME280;38443;53.164;5.802;2023-05-11T06:43:22;101784.56;;;10.22;100.00
52535;BME280;38443;53.164;5.802;2023-05-11T06:45:47;101786.28;;;10.27;100.00
52535;BME280;38443;53.164;5.802;2023-05-11T06:48:13;101780.91;;;10.32;100.00
52535;BME280;38443;53.164;5.802;2023-05-11T06:50:38;101788.97;;;10.30;100.00
52535;BME280;38443;53.164;5.802;2023-05-11T06:53:04;101794.28;;;10.33;100.00
52535;BME280;38443;53.164;5.802;2023-05-11T06:55:29;101799.56;;;10.38;100.00
52535;BME280;38443;53.164;5.802;2023-05-11T06:57:54;101797.72;;;10.43;100.00
52535;BME280;38443;53.164;5.802;2023-05-11T07:00:20;101789.63;;;10.46;100.00
52535;BME280;38443;53.164;5.802;2023-05-11T07:02:45;101795.84;;;10.50;100.00
52535;BME280;38443;53.164;5.802;2023-05-11T07:05:11;101790.56;;;10.44;100.00
52535;BME280;38443;53.164;5.802;2023-05-11T07:07:37;101797.72;;;10.43;100.00
52535;BME280;38443;53.164;5.802;2023-05-11T07:10:03;101797.63;;;10.49;100.00
52535;BME280;38443;53.164;5.802;2023-05-11T07:12:28;101797.59;;;10.52;100.00
52535;BME280;38443;53.164;5.802;2023-05-11T07:14:53;101794.78;;;10.60;100.00
52535;BME280;38443;53.164;5.802;2023-05-11T07:17:19;101797.38;;;10.68;100.00
52535;BME280;38443;53.164;5.802;2023-05-11T07:19:44;101799.97;;;10.74;100.00
52535;BME280;38443;53.164;5.802;2023-05-11T07:22:09;101796.31;;;10.78;100.00
52535;BME280;38443;53.164;5.802;2023-05-11T07:24:35;101800.72;;;10.82;100.00
52535;BME280;38443;53.164;5.802;2023-05-11T07:27:01;101793.53;;;10.86;100.00
52535;BME280;38443;53.164;5.802;2023-05-11T07:29:27;101787.22;;;10.90;100.00
52535;BME280;38443;53.164;5.802;2023-05-11T07:31:52;101796.00;;;11.00;100.00
52535;BME280;38443;53.164;5.802;2023-05-11T07:34:17;101792.47;;;10.97;100.00
52535;BME280;38443;53.164;5.802;2023-05-11T07:36:43;101795.97;;;11.03;100.00
52535;BME280;38443;53.164;5.802;2023-05-11T07:39:09;101787.88;;;11.04;100.00
52535;BME280;38443;53.164;5.802;2023-05-11T07:41:35;101794.09;;;11.08;100.00
52535;BME280;38443;53.164;5.802;2023-05-11T07:44:00;101793.97;;;11.14;100.00
52535;BME280;38443;53.164;5.802;2023-05-11T07:46:26;101785.88;;;11.18;100.00
52535;BME280;38443;53.164;5.802;2023-05-11T07:48:51;101785.88;;;11.18;100.00
52535;BME280;38443;53.164;5.802;2023-05-11T07:51:17;101794.72;;;11.25;100.00
52535;BME280;38443;53.164;5.802;2023-05-11T07:53:42;101800.91;;;11.27;100.00
52535;BME280;38443;53.164;5.802;2023-05-11T07:56:07;101794.63;;;11.30;100.00
52535;BME280;38443;53.164;5.802;2023-05-11T07:58:33;101792.88;;;11.29;100.00
52535;BME280;38443;53.164;5.802;2023-05-11T08:00:59;101795.53;;;11.29;100.00
52535;BME280;38443;53.164;5.802;2023-05-11T08:03:24;101802.50;;;11.41;100.00
52535;BME280;38443;53.164;5.802;2023-05-11T08:05:50;101803.31;;;11.44;100.00
52535;BME280;38443;53.164;5.802;2023-05-11T08:08:15;101800.63;;;11.44;100.00
52535;BME280;38443;53.164;5.802;2023-05-11T08:10:40;101802.44;;;11.42;100.00
52535;BME280;38443;53.164;5.802;2023-05-11T08:13:06;101811.22;;;11.52;100.00
52535;BME280;38443;53.164;5.802;2023-05-11T08:15:31;101804.84;;;11.57;100.00
52535;BME280;38443;53.164;5.802;2023-05-11T08:17:58;101812.94;;;11.56;100.00
52535;BME280;38443;53.164;5.802;2023-05-11T08:20:23;101815.47;;;11.65;100.00
52535;BME280;38443;53.164;5.802;2023-05-11T08:22:48;101812.69;;;11.68;100.00
52535;BME280;38443;53.164;5.802;2023-05-11T08:25:14;101815.31;;;11.73;100.00
52535;BME280;38443;53.164;5.802;2023-05-11T08:27:39;101817.94;;;11.74;100.00
52535;BME280;38443;53.164;5.802;2023-05-11T08:30:05;101816.09;;;11.80;100.00
52535;BME280;38443;53.164;5.802;2023-05-11T08:32:30;101819.66;;;11.78;100.00
52535;BME280;38443;53.164;5.802;2023-05-11T08:34:56;101817.84;;;11.81;100.00
52535;BME280;38443;53.164;5.802;2023-05-11T08:37:22;101819.56;;;11.85;100.00
52535;BME280;38443;53.164;5.802;2023-05-11T08:39:47;101808.84;;;11.85;100.00
52535;BME280;38443;53.164;5.802;2023-05-11T08:42:14;101813.22;;;11.90;100.00
52535;BME280;38443;53.164;5.802;2023-05-11T08:44:42;101810.53;;;11.90;100.00
52535;BME280;38443;53.164;5.802;2023-05-11T08:47:09;101807.81;;;11.93;100.00
52535;BME280;38443;53.164;5.802;2023-05-11T08:49:35;101817.59;;;11.94;100.00
52535;BME280;38443;53.164;5.802;2023-05-11T08:52:04;101819.41;;;11.94;100.00
52535;BME280;38443;53.164;5.802;2023-05-11T08:54:32;101815.75;;;11.98;100.00
52535;BME280;38443;53.164;5.802;2023-05-11T08:56:59;101815.88;;;11.92;100.00
52535;BME280;38443;53.164;5.802;2023-05-11T08:59:26;101815.00;;;11.91;100.00
52535;BME280;38443;53.164;5.802;2023-05-11T09:01:53;101814.91;;;11.94;100.00
52535;BME280;38443;53.164;5.802;2023-05-11T09:04:19;101810.47;;;11.95;100.00
52535;BME280;38443;53.164;5.802;2023-05-11T09:06:45;101816.72;;;11.94;100.00
52535;BME280;38443;53.164;5.802;2023-05-11T09:09:11;101824.81;;;11.92;100.00
52535;BME280;38443;53.164;5.802;2023-05-11T09:11:37;101823.91;;;11.93;100.00
52535;BME280;38443;53.164;5.802;2023-05-11T09:14:02;101819.56;;;11.85;100.00
52535;BME280;38443;53.164;5.802;2023-05-11T09:16:28;101826.69;;;11.89;100.00
52535;BME280;38443;53.164;5.802;2023-05-11T09:18:58;101822.19;;;11.89;100.00
52535;BME280;38443;53.164;5.802;2023-05-11T09:21:25;101822.09;;;11.94;100.00
52535;BME280;38443;53.164;5.802;2023-05-11T09:23:50;101822.06;;;11.95;100.00
52535;BME280;38443;53.164;5.802;2023-05-11T09:26:19;101821.25;;;11.92;100.00
52535;BME280;38443;53.164;5.802;2023-05-11T09:28:52;101820.38;;;11.91;100.00
52535;BME280;38443;53.164;5.802;2023-05-11T09:31:38;101822.84;;;12.01;100.00
52535;BME280;38443;53.164;5.802;2023-05-11T09:36:39;101819.03;;;12.12;100.00
52535;BME280;38443;53.164;5.802;2023-05-11T09:39:06;101819.69;;;12.25;100.00
52535;BME280;38443;53.164;5.802;2023-05-11T09:41:31;101820.41;;;12.33;100.00
52535;BME280;38443;53.164;5.802;2023-05-11T09:44:12;101815.88;;;12.37;100.00
52535;BME280;38443;53.164;5.802;2023-05-11T09:46:39;101804.19;;;12.38;100.00
52535;BME280;38443;53.164;5.802;2023-05-11T09:49:06;101820.19;;;12.44;100.00
52535;BME280;38443;53.164;5.802;2023-05-11T09:51:33;101811.09;;;12.51;100.00
52535;BME280;38443;53.164;5.802;2023-05-11T09:54:00;101813.84;;;12.47;100.00
52535;BME280;38443;53.164;5.802;2023-05-11T09:56:43;101811.50;;;12.33;100.00
52535;BME280;38443;53.164;5.802;2023-05-11T09:59:09;101815.03;;;12.35;100.00
52535;BME280;38443;53.164;5.802;2023-05-11T10:01:37;101812.22;;;12.40;100.00
52535;BME280;38443;53.164;5.802;2023-05-11T10:04:03;101808.69;;;12.37;100.00
52535;BME280;38443;53.164;5.802;2023-05-11T10:06:49;101807.72;;;12.42;100.00
52535;BME280;38443;53.164;5.802;2023-05-11T10:09:17;101819.19;;;12.48;100.00
52535;BME280;38443;53.164;5.802;2023-05-11T10:11:44;101820.88;;;12.54;100.00
52535;BME280;38443;53.164;5.802;2023-05-11T10:14:12;101822.38;;;12.67;100.00
52535;BME280;38443;53.164;5.802;2023-05-11T10:16:40;101815.75;;;12.82;100.00
52535;BME280;38443;53.164;5.802;2023-05-11T10:19:06;101821.69;;;12.96;100.00
52535;BME280;38443;53.164;5.802;2023-05-11T10:21:33;101814.38;;;13.03;100.00
52535;BME280;38443;53.164;5.802;2023-05-11T10:23:59;101819.69;;;13.06;100.00
52535;BME280;38443;53.164;5.802;2023-05-11T10:26:25;101818.69;;;13.10;100.00
52535;BME280;38443;53.164;5.802;2023-05-11T10:28:51;101820.28;;;13.19;100.00
52535;BME280;38443;53.164;5.802;2023-05-11T10:31:18;101828.06;;;13.31;100.00
52535;BME280;38443;53.164;5.802;2023-05-11T10:33:49;101819.91;;;13.34;100.00
52535;BME280;38443;53.164;5.802;2023-05-11T10:36:16;101820.66;;;13.41;100.00
52535;BME280;38443;53.164;5.802;2023-05-11T10:38:41;101821.22;;;13.54;100.00
52535;BME280;38443;53.164;5.802;2023-05-11T10:41:24;101813.31;;;13.48;100.00
52535;BME280;38443;53.164;5.802;2023-05-11T10:44:31;101826.53;;;13.57;100.00
52535;BME280;38443;53.164;5.802;2023-05-11T10:58:08;101818.38;;;13.93;100.00
52535;BME280;38443;53.164;5.802;2023-05-11T11:03:25;101823.34;;;14.08;100.00
52535;BME280;38443;53.164;5.802;2023-05-11T11:05:50;101820.78;;;14.04;100.00
52535;BME280;38443;53.164;5.802;2023-05-11T11:08:16;101816.88;;;14.15;100.00
52535;BME280;38443;53.164;5.802;2023-05-11T11:10:42;101816.47;;;14.29;100.00
52535;BME280;38443;53.164;5.802;2023-05-11T11:13:11;101800.97;;;14.38;100.00
52535;BME280;38443;53.164;5.802;2023-05-11T11:18:38;101808.03;;;14.42;100.00
52535;BME280;38443;53.164;5.802;2023-05-11T11:21:03;101805.31;;;14.42;100.00
52535;BME280;38443;53.164;5.802;2023-05-11T11:23:41;101811.66;;;14.39;100.00
52535;BME280;38443;53.164;5.802;2023-05-11T11:26:08;101812.09;;;14.56;100.00
52535;BME280;38443;53.164;5.802;2023-05-11T11:33:46;101800.59;;;14.80;100.00
52535;BME280;38443;53.164;5.802;2023-05-11T11:36:11;101802.34;;;14.81;100.00
52535;BME280;38443;53.164;5.802;2023-05-11T11:38:56;101788.16;;;14.75;100.00
52535;BME280;38443;53.164;5.802;2023-05-11T11:41:27;101793.47;;;14.77;100.00
52535;BME280;38443;53.164;5.802;2023-05-11T11:43:53;101793.44;;;14.79;100.00
52535;BME280;38443;53.164;5.802;2023-05-11T11:46:27;101800.59;;;14.80;100.00
52535;BME280;38443;53.164;5.802;2023-05-11T11:49:06;101796.69;;;14.90;100.00
52535;BME280;38443;53.164;5.802;2023-05-11T11:51:33;101799.13;;;14.98;100.00
52535;BME280;38443;53.164;5.802;2023-05-11T11:53:59;101799.25;;;14.93;100.00
52535;BME280;38443;53.164;5.802;2023-05-11T12:01:21;101792.50;;;15.08;100.00
52535;BME280;38443;53.164;5.802;2023-05-11T12:03:57;101803.06;;;15.15;100.00
52535;BME280;38443;53.164;5.802;2023-05-11T12:06:38;101798.56;;;15.41;100.00
52535;BME280;38443;53.164;5.802;2023-05-11T12:09:04;101789.94;;;15.56;100.00
52535;BME280;38443;53.164;5.802;2023-05-11T12:11:30;101797.19;;;15.56;100.00
52535;BME280;38443;53.164;5.802;2023-05-11T12:13:56;101790.25;;;15.47;100.00
52535;BME280;38443;53.164;5.802;2023-05-11T12:16:23;101788.06;;;15.33;100.00
52535;BME280;38443;53.164;5.802;2023-05-11T12:18:56;101792.94;;;15.22;100.00
52535;BME280;38443;53.164;5.802;2023-05-11T12:21:24;101796.88;;;15.12;100.00
52535;BME280;38443;53.164;5.802;2023-05-11T12:24:04;101788.06;;;15.05;100.00
52535;BME280;38443;53.164;5.802;2023-05-11T12:26:31;101780.81;;;15.07;100.00
52535;BME280;38443;53.164;5.802;2023-05-11T12:29:08;101787.41;;;14.99;100.00
52535;BME280;38443;53.164;5.802;2023-05-11T12:31:37;101783.19;;;15.18;100.00
52535;BME280;38443;53.164;5.802;2023-05-11T12:34:03;101781.28;;;15.47;100.00
52535;BME280;38443;53.164;5.802;2023-05-11T12:36:29;101782.00;;;15.79;100.00
52535;BME280;38443;53.164;5.802;2023-05-11T12:38:56;101768.59;;;16.01;100.00
52535;BME280;38443;53.164;5.802;2023-05-11T12:41:22;101771.91;;;16.09;100.00
52535;BME280;38443;53.164;5.802;2023-05-11T12:43:52;101771.34;;;15.99;100.00
52535;BME280;38443;53.164;5.802;2023-05-11T12:46:19;101773.50;;;16.14;100.00
52535;BME280;38443;53.164;5.802;2023-05-11T12:48:49;101771.38;;;16.23;100.00
52535;BME280;38443;53.164;5.802;2023-05-11T12:54:31;101772.53;;;16.39;100.00
52535;BME280;38443;53.164;5.802;2023-05-11T12:56:58;101762.78;;;16.35;100.00
52535;BME280;38443;53.164;5.802;2023-05-11T13:02:18;101753.56;;;16.17;100.00
52535;BME280;38443;53.164;5.802;2023-05-11T13:04:45;101758.50;;;16.29;100.00
52535;BME280;38443;53.164;5.802;2023-05-11T13:07:11;101763.84;;;16.31;100.00
52535;BME280;38443;53.164;5.802;2023-05-11T13:09:38;101766.78;;;16.25;100.00
52535;BME280;38443;53.164;5.802;2023-05-11T13:12:15;101763.31;;;16.21;100.00
52535;BME280;38443;53.164;5.802;2023-05-11T13:14:49;101759.47;;;16.28;100.00
52535;BME280;38443;53.164;5.802;2023-05-11T13:17:32;101764.69;;;16.33;100.00
52535;BME280;38443;53.164;5.802;2023-05-11T13:22:42;101760.13;;;16.57;100.00
52535;BME280;38443;53.164;5.802;2023-05-11T13:25:08;101770.38;;;16.49;100.00
52535;BME280;38443;53.164;5.802;2023-05-11T13:27:34;101762.25;;;16.25;100.00
52535;BME280;38443;53.164;5.802;2023-05-11T13:30:00;101757.03;;;16.21;100.00